createdAt,value
2022-11-10T00:04:15.323Z,100989.16
2022-11-10T00:11:35.528Z,100991.13
2022-11-10T00:18:55.771Z,101003.25
2022-11-10T00:26:17.758Z,101010.56
2022-11-10T00:33:38.873Z,101009.50
2022-11-10T00:41:00.073Z,101009.25
2022-11-10T00:48:20.043Z,101028.19
2022-11-10T00:55:40.802Z,101025.66
2022-11-10T01:03:02.483Z,101037.44
2022-11-10T01:10:22.761Z,101043.63
2022-11-10T01:17:42.941Z,101042.84
2022-11-10T01:25:03.050Z,101046.41
2022-11-10T01:32:23.195Z,101052.50
2022-11-10T01:39:43.667Z,101061.97
2022-11-10T01:47:03.888Z,101074.25
2022-11-10T01:54:25.448Z,101085.44
2022-11-10T02:01:48.854Z,101094.75
2022-11-10T02:09:08.887Z,101100.53
2022-11-10T02:16:28.913Z,101093.88
2022-11-10T02:23:50.868Z,101112.81
2022-11-10T02:31:11.127Z,101118.31
2022-11-10T02:38:31.254Z,101123.63
2022-11-10T02:45:51.382Z,101131.41
2022-11-10T02:53:11.735Z,101132.16
2022-11-10T03:00:31.979Z,101146.66
2022-11-10T03:07:56.291Z,101159.50
2022-11-10T03:15:16.412Z,101162.22
2022-11-10T03:22:37.006Z,101187.63
2022-11-10T03:29:57.097Z,101193.50
2022-11-10T03:37:17.375Z,101207.41
2022-11-10T03:44:37.421Z,101219.09
2022-11-10T03:51:57.554Z,101225.97
2022-11-10T03:59:17.697Z,101225.00
2022-11-10T04:06:56.887Z,101238.03
2022-11-10T04:14:35.514Z,101245.53
2022-11-10T04:21:55.670Z,101258.31
2022-11-10T04:29:19.750Z,101268.84
2022-11-10T04:36:41.620Z,101277.25
2022-11-10T04:44:02.086Z,101292.19
2022-11-10T04:51:24.180Z,101289.94
2022-11-10T04:58:44.697Z,101299.00
2022-11-10T05:06:05.178Z,101299.63
2022-11-10T05:13:25.258Z,101306.75
2022-11-10T05:20:45.325Z,101314.19
2022-11-10T05:28:05.868Z,101336.13
2022-11-10T05:35:25.880Z,101342.75
2022-11-10T05:42:47.294Z,101369.16
2022-11-10T05:50:08.271Z,101383.88
2022-11-10T05:57:28.359Z,101395.19
2022-11-10T06:04:48.514Z,101428.75
2022-11-10T06:12:08.954Z,101433.19
2022-11-10T06:19:29.190Z,101442.28
2022-11-10T06:26:49.488Z,101459.13
2022-11-10T06:34:09.800Z,101472.41
2022-11-10T06:41:30.126Z,101485.28
2022-11-10T06:48:50.345Z,101504.09
2022-11-10T06:56:10.711Z,101537.66
2022-11-10T07:03:31.063Z,101545.31
2022-11-10T07:10:52.757Z,101564.56
2022-11-10T07:18:13.009Z,101572.44
2022-11-10T07:25:36.711Z,101582.53
2022-11-10T07:33:06.677Z,101597.84
2022-11-10T07:40:27.984Z,101608.44
2022-11-10T07:47:48.504Z,101608.91
2022-11-10T07:55:08.737Z,101626.78
2022-11-10T08:02:28.924Z,101644.31
2022-11-10T08:09:50.487Z,101637.84
2022-11-10T08:17:10.586Z,101659.81
2022-11-10T08:24:30.848Z,101665.78
2022-11-10T08:31:51.930Z,101672.47
2022-11-10T08:39:13.284Z,101677.09
2022-11-10T08:46:37.751Z,101692.13
2022-11-10T08:53:57.961Z,101709.50
2022-11-10T09:01:18.001Z,101724.72
2022-11-10T09:08:38.344Z,101741.03
2022-11-10T09:16:02.502Z,101746.41
2022-11-10T09:23:24.708Z,101761.31
2022-11-10T09:30:48.926Z,101754.09
2022-11-10T09:38:09.659Z,101762.28
2022-11-10T09:45:36.387Z,101778.97
2022-11-10T09:52:59.452Z,101786.28
2022-11-10T10:00:19.421Z,101780.63
2022-11-10T10:07:51.550Z,101781.53
2022-11-10T10:15:14.778Z,101789.25
2022-11-10T10:22:56.307Z,101777.72
2022-11-10T10:30:18.318Z,101788.31
2022-11-10T10:37:58.372Z,101795.91
2022-11-10T10:45:18.721Z,101800.44
2022-11-10T10:52:38.770Z,101802.56
2022-11-10T11:00:31.101Z,101815.16
2022-11-10T11:08:01.281Z,101815.25
2022-11-10T11:15:21.684Z,101795.75
2022-11-10T11:22:52.654Z,101805.03
2022-11-10T11:30:21.106Z,101814.19
2022-11-10T11:37:41.510Z,101821.47
2022-11-10T11:45:29.737Z,101817.69
2022-11-10T11:53:03.347Z,101817.91
2022-11-10T12:00:23.487Z,101812.75
2022-11-10T12:07:50.146Z,101813.34
2022-11-10T12:15:33.199Z,101815.81
2022-11-10T12:23:08.988Z,101821.03
2022-11-10T12:30:29.155Z,101818.69
2022-11-10T12:38:16.280Z,101834.44
2022-11-10T12:45:42.619Z,101846.50
2022-11-10T12:53:05.991Z,101856.00
2022-11-10T13:00:31.699Z,101871.47
2022-11-10T13:08:03.665Z,101867.44
2022-11-10T13:15:35.713Z,101877.47
2022-11-10T13:22:55.721Z,101880.34
2022-11-10T13:30:39.392Z,101883.47
2022-11-10T13:37:59.651Z,101886.06
2022-11-10T13:45:32.269Z,101894.13
2022-11-10T13:52:56.540Z,101914.28
2022-11-10T14:00:18.044Z,101906.81
2022-11-10T14:07:42.506Z,101915.41
2022-11-10T14:15:06.893Z,101937.16
2022-11-10T14:22:35.156Z,101928.56
2022-11-10T14:30:06.250Z,101948.91
2022-11-10T14:37:28.138Z,101950.41
2022-11-10T14:44:48.620Z,101971.44
2022-11-10T14:52:09.075Z,101988.06
2022-11-10T14:59:29.165Z,101992.78
2022-11-10T15:06:49.328Z,102001.72
2022-11-10T15:14:46.423Z,102009.16
2022-11-10T15:22:12.449Z,102022.13
2022-11-10T15:29:32.650Z,102018.44
2022-11-10T15:37:09.720Z,102030.94
2022-11-10T15:44:29.656Z,102034.28
2022-11-10T15:51:51.107Z,102047.13
2022-11-10T15:59:11.576Z,102039.84
2022-11-10T16:06:32.344Z,102032.81
2022-11-10T16:13:52.085Z,102035.94
2022-11-10T16:21:22.637Z,102033.56
2022-11-10T16:28:44.189Z,102054.00
2022-11-10T16:36:04.533Z,102064.13
2022-11-10T16:43:24.895Z,102087.09
2022-11-10T16:50:45.780Z,102089.31
2022-11-10T16:58:05.942Z,102088.69
2022-11-10T17:05:26.118Z,102090.09
2022-11-10T17:12:46.576Z,102102.28
2022-11-10T17:20:07.294Z,102111.81
2022-11-10T17:27:27.886Z,102126.47
2022-11-10T17:34:48.060Z,102138.44
2022-11-10T17:42:12.769Z,102153.69
2022-11-10T17:49:33.071Z,102149.03
2022-11-10T17:56:53.281Z,102152.22
2022-11-10T18:04:13.806Z,102145.94
2022-11-10T18:11:34.083Z,102153.25
2022-11-10T18:18:54.242Z,102148.19
2022-11-10T18:26:14.518Z,102149.72
2022-11-10T18:33:34.903Z,102163.50
2022-11-10T18:40:54.791Z,102162.63
2022-11-10T18:48:14.768Z,102173.59
2022-11-10T18:55:34.891Z,102183.66
2022-11-10T19:02:55.934Z,102184.28
2022-11-10T19:10:16.129Z,102173.31
2022-11-10T19:17:36.376Z,102187.16
2022-11-10T19:25:12.062Z,102192.06
2022-11-10T19:32:32.257Z,102208.53
2022-11-10T19:39:52.680Z,102195.50
2022-11-10T19:47:12.935Z,102188.97
2022-11-10T19:54:33.169Z,102195.56
2022-11-10T20:01:53.455Z,102200.31
2022-11-10T20:09:13.940Z,102200.97
2022-11-10T20:16:34.075Z,102211.81
2022-11-10T20:23:54.910Z,102226.00
2022-11-10T20:31:20.201Z,102237.84
2022-11-10T20:38:40.597Z,102242.09
2022-11-10T20:46:00.833Z,102251.16
2022-11-10T20:53:21.209Z,102253.56
2022-11-10T21:00:43.352Z,102257.72
2022-11-10T21:08:03.601Z,102282.25
2022-11-10T21:15:23.773Z,102288.16
2022-11-10T21:22:43.697Z,102295.56
2022-11-10T21:30:05.476Z,102283.47
2022-11-10T21:37:26.930Z,102270.03
2022-11-10T21:44:47.395Z,102267.16
2022-11-10T21:52:07.601Z,102257.97
2022-11-10T21:59:27.802Z,102255.94
2022-11-10T22:07:06.647Z,102273.16
2022-11-10T22:14:45.445Z,102280.22
2022-11-10T22:22:06.004Z,102283.00
2022-11-10T22:29:31.159Z,102304.63
2022-11-10T22:36:53.540Z,102313.97
2022-11-10T22:44:14.557Z,102309.94
2022-11-10T22:51:34.705Z,102314.84
2022-11-10T22:58:59.652Z,102310.88
2022-11-10T23:06:20.726Z,102307.28
2022-11-10T23:13:41.014Z,102318.91
2022-11-10T23:21:05.232Z,102323.41
2022-11-10T23:28:29.459Z,102338.28
2022-11-10T23:35:49.740Z,102346.16
2022-11-10T23:43:09.993Z,102332.63
2022-11-10T23:50:30.304Z,102334.97
2022-11-10T23:57:50.673Z,102344.88
